createdAt,value
2019-04-27T00:02:03.685Z,9.39
2019-04-27T00:04:55.615Z,9.38
2019-04-27T00:07:43.824Z,9.36
2019-04-27T00:10:35.403Z,9.38
2019-04-27T00:13:05.796Z,9.38
2019-04-27T00:15:45.614Z,9.36
2019-04-27T00:18:28.134Z,9.37
2019-04-27T00:21:13.516Z,9.40
2019-04-27T00:23:45.646Z,9.39
2019-04-27T00:26:15.016Z,9.38
2019-04-27T00:28:44.360Z,9.37
2019-04-27T00:31:13.708Z,9.38
2019-04-27T00:33:43.521Z,9.38
2019-04-27T00:36:23.450Z,9.40
2019-04-27T00:39:14.531Z,9.42
2019-04-27T00:41:43.937Z,9.44
2019-04-27T00:44:13.544Z,9.45
2019-04-27T00:46:43.200Z,9.45
2019-04-27T00:49:13.759Z,9.45
2019-04-27T00:51:43.474Z,9.44
2019-04-27T00:54:13.581Z,9.39
2019-04-27T00:57:08.015Z,9.37
2019-04-27T00:59:53.050Z,9.39
2019-04-27T01:02:40.255Z,9.38
2019-04-27T01:05:15.642Z,9.40
2019-04-27T01:07:44.980Z,9.39
2019-04-27T01:10:14.344Z,9.40
2019-04-27T01:12:43.709Z,9.41
2019-04-27T01:15:13.854Z,9.43
2019-04-27T01:17:43.505Z,9.43
2019-04-27T01:20:12.913Z,9.42
2019-04-27T01:22:42.268Z,9.42
2019-04-27T01:25:11.959Z,9.41
2019-04-27T01:27:59.654Z,9.40
2019-04-27T01:30:51.765Z,9.37
2019-04-27T01:33:21.156Z,9.34
2019-04-27T01:35:50.524Z,9.34
2019-04-27T01:38:19.886Z,9.34
2019-04-27T01:40:49.786Z,9.36
2019-04-27T01:43:19.262Z,9.36
2019-04-27T01:45:48.884Z,9.36
2019-04-27T01:48:25.076Z,9.30
2019-04-27T01:50:53.102Z,8.89
2019-04-27T01:53:22.444Z,8.75
2019-04-27T01:55:51.808Z,8.71
2019-04-27T01:58:22.580Z,8.66
2019-04-27T02:01:10.856Z,8.61
2019-04-27T02:04:09.246Z,8.57
2019-04-27T02:06:38.674Z,8.58
2019-04-27T02:09:10.595Z,8.59
2019-04-27T02:11:39.948Z,8.60
2019-04-27T02:14:09.541Z,8.61
2019-04-27T02:16:39.200Z,8.62
2019-04-27T02:19:11.239Z,8.66
2019-04-27T02:21:39.682Z,8.61
2019-04-27T02:24:09.768Z,8.53
2019-04-27T02:26:40.103Z,8.53
2019-04-27T02:29:29.095Z,8.55
2019-04-27T02:32:29.331Z,8.60
2019-04-27T02:35:03.768Z,8.62
2019-04-27T02:37:33.117Z,8.55
2019-04-27T02:40:02.483Z,8.50
2019-04-27T02:42:42.504Z,8.49
2019-04-27T02:45:11.946Z,8.44
2019-04-27T02:47:41.285Z,8.46
2019-04-27T02:50:10.912Z,8.46
2019-04-27T02:52:44.875Z,8.47
2019-04-27T02:55:14.210Z,8.49
2019-04-27T02:57:43.538Z,8.50
2019-04-27T03:00:14.283Z,8.54
2019-04-27T03:02:51.304Z,8.58
2019-04-27T03:05:25.150Z,8.61
2019-04-27T03:07:54.663Z,8.65
2019-04-27T03:10:26.176Z,8.65
2019-04-27T03:13:23.449Z,8.66
2019-04-27T03:16:11.412Z,8.65
2019-04-27T03:19:13.484Z,8.65
2019-04-27T03:21:49.976Z,8.65
2019-04-27T03:24:19.947Z,8.65
2019-04-27T03:26:55.156Z,8.68
2019-04-27T03:29:24.490Z,8.69
2019-04-27T03:31:54.583Z,8.71
2019-04-27T03:34:24.322Z,8.71
2019-04-27T03:36:53.632Z,8.72
2019-04-27T03:39:23.115Z,8.72
2019-04-27T03:41:52.922Z,8.71
2019-04-27T03:44:22.399Z,8.72
2019-04-27T03:46:51.797Z,8.72
2019-04-27T03:49:35.124Z,8.70
2019-04-27T03:52:03.082Z,8.71
2019-04-27T03:54:56.872Z,8.71
2019-04-27T03:57:31.862Z,8.71
2019-04-27T04:00:03.597Z,8.70
2019-04-27T04:02:32.978Z,8.72
2019-04-27T04:05:02.409Z,8.72
2019-04-27T04:07:31.766Z,8.73
2019-04-27T04:10:01.102Z,8.73
2019-04-27T04:12:36.550Z,8.72
2019-04-27T04:15:10.000Z,8.72
2019-04-27T04:17:40.264Z,8.72
2019-04-27T04:20:10.308Z,8.72
2019-04-27T04:22:40.349Z,8.73
2019-04-27T04:25:10.787Z,8.75
2019-04-27T04:27:42.849Z,8.75
2019-04-27T04:30:12.264Z,8.76
2019-04-27T04:32:42.160Z,8.76
2019-04-27T04:35:23.163Z,8.77
2019-04-27T04:37:53.406Z,8.76
2019-04-27T04:40:30.717Z,8.76
2019-04-27T04:43:10.875Z,8.76
2019-04-27T04:46:01.294Z,8.74
2019-04-27T04:48:30.615Z,8.74
2019-04-27T04:51:00.234Z,8.75
2019-04-27T04:53:29.735Z,8.76
2019-04-27T04:56:00.366Z,8.77
2019-04-27T04:58:29.914Z,8.76
2019-04-27T05:01:01.414Z,8.77
2019-04-27T05:03:30.368Z,8.77
2019-04-27T05:05:59.733Z,8.76
2019-04-27T05:08:29.268Z,8.77
2019-04-27T05:10:59.663Z,8.76
2019-04-27T05:13:29.429Z,8.76
2019-04-27T05:15:59.055Z,8.77
2019-04-27T05:18:29.353Z,8.78
2019-04-27T05:21:20.471Z,8.76
2019-04-27T05:23:49.812Z,8.75
2019-04-27T05:26:20.762Z,8.76
2019-04-27T05:28:50.276Z,8.75
2019-04-27T05:31:19.746Z,8.77
2019-04-27T05:33:49.171Z,8.76
2019-04-27T05:36:19.343Z,8.75
2019-04-27T05:38:49.853Z,8.75
2019-04-27T05:41:19.315Z,8.75
2019-04-27T05:44:07.632Z,8.73
2019-04-27T05:46:55.578Z,8.74
2019-04-27T05:49:45.009Z,8.72
2019-04-27T05:52:32.647Z,8.72
2019-04-27T05:55:02.007Z,8.72
2019-04-27T05:57:31.758Z,8.70
2019-04-27T06:00:02.188Z,8.70
2019-04-27T06:02:32.065Z,8.70
2019-04-27T06:05:01.408Z,8.71
2019-04-27T06:07:30.728Z,8.72
2019-04-27T06:10:00.130Z,8.71
2019-04-27T06:12:29.934Z,8.72
2019-04-27T06:15:00.139Z,8.73
2019-04-27T06:17:30.226Z,8.71
2019-04-27T06:19:59.815Z,8.73
2019-04-27T06:22:29.498Z,8.73
2019-04-27T06:25:00.053Z,8.74
2019-04-27T06:27:30.821Z,8.75
2019-04-27T06:30:00.314Z,8.75
2019-04-27T06:32:29.809Z,8.74
2019-04-27T06:34:59.345Z,8.74
2019-04-27T06:37:29.328Z,8.77
2019-04-27T06:39:59.696Z,8.78
2019-04-27T06:42:29.917Z,8.81
2019-04-27T06:45:00.080Z,8.81
2019-04-27T06:47:29.723Z,8.81
2019-04-27T06:49:59.173Z,8.80
2019-04-27T06:52:29.247Z,8.83
2019-04-27T06:55:00.614Z,8.87
2019-04-27T06:57:30.111Z,8.91
2019-04-27T06:59:59.603Z,8.95
2019-04-27T07:02:29.301Z,8.98
2019-04-27T07:05:05.403Z,9.01
2019-04-27T07:07:34.831Z,9.06
2019-04-27T07:10:04.631Z,9.10
2019-04-27T07:12:34.246Z,9.16
2019-04-27T07:15:03.918Z,9.18
2019-04-27T07:17:33.351Z,9.21
2019-04-27T07:20:02.803Z,9.23
2019-04-27T07:22:32.437Z,9.25
2019-04-27T07:25:01.818Z,9.28
2019-04-27T07:27:31.234Z,9.29
2019-04-27T07:30:01.709Z,9.32
2019-04-27T07:32:31.421Z,9.33
2019-04-27T07:35:00.810Z,9.33
2019-04-27T07:37:30.267Z,9.32
2019-04-27T07:39:59.647Z,9.33
2019-04-27T07:42:31.535Z,9.33
2019-04-27T07:45:09.287Z,9.36
2019-04-27T07:47:39.542Z,9.35
2019-04-27T07:50:09.666Z,9.31
2019-04-27T07:52:40.510Z,9.32
2019-04-27T07:55:09.981Z,9.29
2019-04-27T07:57:39.953Z,9.31
2019-04-27T08:00:09.834Z,9.37
2019-04-27T08:02:39.183Z,9.42
2019-04-27T08:05:09.318Z,9.46
2019-04-27T08:07:39.282Z,9.50
2019-04-27T08:10:09.737Z,9.54
2019-04-27T08:12:39.268Z,9.56
2019-04-27T08:15:09.026Z,9.59
2019-04-27T08:17:40.566Z,9.58
2019-04-27T08:20:10.044Z,9.57
2019-04-27T08:22:39.408Z,9.59
2019-04-27T08:25:09.597Z,9.58
2019-04-27T08:27:55.008Z,9.57
2019-04-27T08:30:32.339Z,9.53
2019-04-27T08:33:02.587Z,9.52
2019-04-27T08:35:32.771Z,9.52
2019-04-27T08:38:02.276Z,9.51
2019-04-27T08:40:31.632Z,9.52
2019-04-27T08:43:01.006Z,9.54
2019-04-27T08:45:30.390Z,9.57
2019-04-27T08:47:59.765Z,9.55
2019-04-27T08:50:30.578Z,9.55
2019-04-27T08:53:00.812Z,9.58
2019-04-27T08:55:30.315Z,9.64
2019-04-27T08:57:59.660Z,9.65
2019-04-27T09:00:29.186Z,9.68
2019-04-27T09:02:59.526Z,9.71
2019-04-27T09:05:29.158Z,9.73
2019-04-27T09:08:29.401Z,9.76
2019-04-27T09:11:13.929Z,9.78
2019-04-27T09:14:00.501Z,9.80
2019-04-27T09:16:59.546Z,9.81
2019-04-27T09:19:49.151Z,9.77
2019-04-27T09:22:20.532Z,9.80
2019-04-27T09:24:52.448Z,9.84
2019-04-27T09:27:21.792Z,9.89
2019-04-27T09:29:51.113Z,9.91
2019-04-27T09:32:20.488Z,9.96
2019-04-27T09:34:49.827Z,10.04
2019-04-27T09:37:22.439Z,10.09
2019-04-27T09:39:51.851Z,10.14
2019-04-27T09:42:21.207Z,10.15
2019-04-27T09:44:50.553Z,10.25
2019-04-27T09:47:19.925Z,10.25
2019-04-27T09:49:49.285Z,10.23
2019-04-27T09:52:26.306Z,10.23
2019-04-27T09:54:49.724Z,10.26
2019-04-27T09:57:19.118Z,10.30
2019-04-27T09:59:48.660Z,10.29
2019-04-27T10:02:18.163Z,10.28
2019-04-27T10:04:47.697Z,10.30
2019-04-27T10:07:17.206Z,10.27
2019-04-27T10:09:47.466Z,10.25
2019-04-27T10:12:17.131Z,10.26
2019-04-27T10:14:47.891Z,10.37
2019-04-27T10:17:18.521Z,10.42
2019-04-27T10:19:47.925Z,10.49
2019-04-27T10:22:17.862Z,10.46
2019-04-27T10:24:47.349Z,10.46
2019-04-27T10:27:16.769Z,10.49
2019-04-27T10:29:46.850Z,10.58
2019-04-27T10:32:16.390Z,10.61
2019-04-27T10:34:45.977Z,10.69
2019-04-27T10:37:16.094Z,10.61
2019-04-27T10:39:46.058Z,10.61
2019-04-27T10:42:15.883Z,10.64
2019-04-27T10:44:46.193Z,10.62
2019-04-27T10:47:16.480Z,10.58
2019-04-27T10:49:46.577Z,10.62
2019-04-27T10:52:17.152Z,10.72
2019-04-27T10:54:46.899Z,10.79
2019-04-27T10:57:16.411Z,10.88
2019-04-27T10:59:46.220Z,10.99
2019-04-27T11:02:15.660Z,10.99
2019-04-27T11:05:16.120Z,11.04
2019-04-27T11:07:46.334Z,11.11
2019-04-27T11:10:16.362Z,11.22
2019-04-27T11:12:45.943Z,11.13
2019-04-27T11:15:16.379Z,11.03
2019-04-27T11:17:47.662Z,10.95
2019-04-27T11:20:17.728Z,10.93
2019-04-27T11:22:47.238Z,10.92
2019-04-27T11:25:16.925Z,11.02
2019-04-27T11:27:46.427Z,11.08
2019-04-27T11:30:17.772Z,11.15
2019-04-27T11:32:47.265Z,11.17
2019-04-27T11:35:28.144Z,11.17
2019-04-27T11:37:58.350Z,11.16
2019-04-27T11:40:27.809Z,11.13
2019-04-27T11:42:57.404Z,11.10
2019-04-27T11:45:28.471Z,11.12
2019-04-27T11:47:57.975Z,11.16
2019-04-27T11:50:27.321Z,11.15
2019-04-27T11:52:56.789Z,11.16
2019-04-27T11:55:27.323Z,11.10
2019-04-27T11:57:57.424Z,11.10
2019-04-27T12:00:27.728Z,11.12
2019-04-27T12:02:58.204Z,11.19
2019-04-27T12:05:27.589Z,11.27
2019-04-27T12:07:56.954Z,11.30
2019-04-27T12:10:26.463Z,11.32
2019-04-27T12:12:56.385Z,11.36
2019-04-27T12:15:26.336Z,11.49
2019-04-27T12:17:56.296Z,11.65
2019-04-27T12:20:26.050Z,11.75
2019-04-27T12:22:55.427Z,11.76
2019-04-27T12:25:26.173Z,11.64
2019-04-27T12:28:05.021Z,11.49
2019-04-27T12:31:05.360Z,11.48
2019-04-27T12:33:35.807Z,11.52
2019-04-27T12:36:06.752Z,11.57
2019-04-27T12:38:36.638Z,11.57
2019-04-27T12:41:06.791Z,11.60
2019-04-27T12:43:37.507Z,11.97
2019-04-27T12:46:07.063Z,11.97
2019-04-27T12:48:37.530Z,12.12
2019-04-27T12:51:06.944Z,12.14
2019-04-27T12:53:52.118Z,12.10
2019-04-27T12:56:30.040Z,12.09
2019-04-27T12:59:21.171Z,12.04
2019-04-27T13:01:50.549Z,11.91
2019-04-27T13:04:22.732Z,11.93
2019-04-27T13:06:52.069Z,12.06
2019-04-27T13:09:21.412Z,12.30
2019-04-27T13:11:50.770Z,12.30
2019-04-27T13:14:20.105Z,12.42
2019-04-27T13:16:49.589Z,12.42
2019-04-27T13:19:18.945Z,12.42
2019-04-27T13:21:48.285Z,12.28
2019-04-27T13:24:17.789Z,12.09
2019-04-27T13:26:47.257Z,12.09
2019-04-27T13:29:16.778Z,12.23
2019-04-27T13:31:46.115Z,12.23
2019-04-27T13:34:15.933Z,12.46
2019-04-27T13:36:45.787Z,12.54
2019-04-27T13:39:15.780Z,12.74
2019-04-27T13:41:46.266Z,12.74
2019-04-27T13:44:16.087Z,12.86
2019-04-27T13:47:03.381Z,13.02
2019-04-27T13:49:49.644Z,13.07
2019-04-27T13:52:26.390Z,13.10
2019-04-27T13:54:55.824Z,13.11
2019-04-27T13:57:26.570Z,13.11
2019-04-27T13:59:56.084Z,13.18
2019-04-27T14:02:30.210Z,13.34
2019-04-27T14:04:56.519Z,13.34
2019-04-27T14:07:26.650Z,13.43
2019-04-27T14:09:56.113Z,13.50
2019-04-27T14:12:25.594Z,13.48
2019-04-27T14:14:54.912Z,13.55
2019-04-27T14:17:24.285Z,13.71
2019-04-27T14:19:53.664Z,13.71
2019-04-27T14:22:23.014Z,13.41
2019-04-27T14:24:52.543Z,13.25
2019-04-27T14:27:23.694Z,13.25
2019-04-27T14:29:53.083Z,13.12
2019-04-27T14:32:22.450Z,13.02
2019-04-27T14:34:51.944Z,13.02
2019-04-27T14:37:21.487Z,12.86
2019-04-27T14:39:50.860Z,12.75
2019-04-27T14:42:20.239Z,12.75
2019-04-27T14:44:49.608Z,12.67
2019-04-27T14:47:19.040Z,12.57
2019-04-27T14:49:49.069Z,12.57
2019-04-27T14:52:18.862Z,12.87
2019-04-27T14:54:50.693Z,12.87
2019-04-27T14:57:20.512Z,12.77
2019-04-27T14:59:50.292Z,12.66
2019-04-27T15:02:19.714Z,12.54
2019-04-27T15:04:49.141Z,12.33
2019-04-27T15:07:18.506Z,12.33
2019-04-27T15:09:49.780Z,12.23
2019-04-27T15:12:19.146Z,12.20
2019-04-27T15:14:48.533Z,12.32
2019-04-27T15:17:23.325Z,12.32
2019-04-27T15:19:57.345Z,12.41
2019-04-27T15:22:30.155Z,12.50
2019-04-27T15:25:09.401Z,12.56
2019-04-27T15:27:37.698Z,12.56
2019-04-27T15:30:11.502Z,12.53
2019-04-27T15:33:05.338Z,12.65
2019-04-27T15:35:44.026Z,12.65
2019-04-27T15:38:18.593Z,12.55
2019-04-27T15:41:03.571Z,12.52
2019-04-27T15:43:35.211Z,12.95
2019-04-27T15:46:04.611Z,12.95
2019-04-27T15:48:34.223Z,13.23
2019-04-27T15:51:09.522Z,13.20
2019-04-27T15:53:34.790Z,13.20
2019-04-27T15:56:04.243Z,13.30
2019-04-27T15:58:33.615Z,13.45
2019-04-27T16:01:09.054Z,13.45
2019-04-27T16:03:35.666Z,13.11
2019-04-27T16:06:10.028Z,12.98
2019-04-27T16:08:38.269Z,12.98
2019-04-27T16:11:09.959Z,12.88
2019-04-27T16:13:38.410Z,12.74
2019-04-27T16:16:08.434Z,12.65
2019-04-27T16:18:38.807Z,12.65
2019-04-27T16:21:10.767Z,12.63
2019-04-27T16:23:42.911Z,12.77
2019-04-27T16:26:15.060Z,12.77
2019-04-27T16:28:43.046Z,13.39
2019-04-27T16:31:12.967Z,13.44
2019-04-27T16:33:42.448Z,13.44
2019-04-27T16:36:11.788Z,13.62
2019-04-27T16:38:50.137Z,13.86
2019-04-27T16:41:19.531Z,13.86
2019-04-27T16:43:49.109Z,13.78
2019-04-27T16:46:21.032Z,13.78
2019-04-27T16:48:49.526Z,14.02
2019-04-27T16:51:18.901Z,14.02
2019-04-27T16:53:48.430Z,13.88
2019-04-27T16:56:20.432Z,13.71
2019-04-27T16:58:56.304Z,13.71
2019-04-27T17:01:25.126Z,13.70
2019-04-27T17:03:54.986Z,13.69
2019-04-27T17:06:24.484Z,13.69
2019-04-27T17:08:57.470Z,13.81
2019-04-27T17:11:24.894Z,13.61
2019-04-27T17:14:03.408Z,13.62
2019-04-27T17:16:44.365Z,13.68
2019-04-27T17:19:17.213Z,13.71
2019-04-27T17:21:48.373Z,13.71
2019-04-27T17:24:49.337Z,13.70
2019-04-27T17:27:22.043Z,13.65
2019-04-27T17:29:57.708Z,13.42
2019-04-27T17:32:49.304Z,13.40
2019-04-27T17:35:18.763Z,13.40
2019-04-27T17:37:48.851Z,13.40
2019-04-27T17:40:18.334Z,13.48
2019-04-27T17:42:48.233Z,13.47
2019-04-27T17:45:19.405Z,13.21
2019-04-27T17:47:48.692Z,13.02
2019-04-27T17:50:24.853Z,13.02
2019-04-27T17:52:54.880Z,12.71
2019-04-27T17:55:24.450Z,12.53
2019-04-27T17:57:51.726Z,12.53
2019-04-27T18:00:22.251Z,12.28
2019-04-27T18:02:51.663Z,12.12
2019-04-27T18:05:21.159Z,12.12
2019-04-27T18:07:50.560Z,12.08
2019-04-27T18:10:23.842Z,12.06
2019-04-27T18:12:51.078Z,11.94
2019-04-27T18:15:20.428Z,11.94
2019-04-27T18:17:53.841Z,11.99
2019-04-27T18:20:25.182Z,11.88
2019-04-27T18:23:03.521Z,11.88
2019-04-27T18:25:40.438Z,11.82
2019-04-27T18:28:20.187Z,11.70
2019-04-27T18:31:03.358Z,11.70
2019-04-27T18:33:37.029Z,11.68
2019-04-27T18:36:07.296Z,11.65
2019-04-27T18:38:36.779Z,11.62
2019-04-27T18:41:08.139Z,11.58
2019-04-27T18:43:38.576Z,11.58
2019-04-27T18:46:09.113Z,11.52
2019-04-27T18:48:58.479Z,11.51
2019-04-27T18:51:38.440Z,11.48
2019-04-27T18:54:08.196Z,11.46
2019-04-27T18:56:38.425Z,11.46
2019-04-27T18:59:08.689Z,11.40
2019-04-27T19:01:38.041Z,11.40
2019-04-27T19:04:08.677Z,11.33
2019-04-27T19:06:39.162Z,11.22
2019-04-27T19:09:08.593Z,11.22
2019-04-27T19:11:55.767Z,11.17
2019-04-27T19:14:15.170Z,11.08
2019-04-27T19:16:44.517Z,11.08
2019-04-27T19:19:13.884Z,11.03
2019-04-27T19:21:43.258Z,10.99
2019-04-27T19:24:12.616Z,10.94
2019-04-27T19:27:17.860Z,10.91
2019-04-27T19:29:50.587Z,10.84
2019-04-27T19:32:19.960Z,10.81
2019-04-27T19:34:49.321Z,10.81
2019-04-27T19:37:18.687Z,10.77
2019-04-27T19:39:49.771Z,10.74
2019-04-27T19:42:20.381Z,10.71
2019-04-27T19:44:49.993Z,10.68
2019-04-27T19:47:19.378Z,10.65
2019-04-27T19:49:48.718Z,10.62
2019-04-27T19:52:22.506Z,10.60
2019-04-27T19:54:50.649Z,10.56
2019-04-27T19:57:31.834Z,10.57
2019-04-27T19:59:54.992Z,10.54
2019-04-27T20:02:24.348Z,10.52
2019-04-27T20:05:02.398Z,10.51
2019-04-27T20:07:31.757Z,10.50
2019-04-27T20:10:02.153Z,10.48
2019-04-27T20:12:31.555Z,10.47
2019-04-27T20:15:02.295Z,10.44
2019-04-27T20:17:32.533Z,10.45
2019-04-27T20:20:02.446Z,10.45
2019-04-27T20:22:31.787Z,10.44
2019-04-27T20:25:02.017Z,10.44
2019-04-27T20:27:44.993Z,10.44
2019-04-27T20:30:03.196Z,10.44
2019-04-27T20:32:32.730Z,10.43
2019-04-27T20:35:02.057Z,10.43
2019-04-27T20:37:31.537Z,10.43
2019-04-27T20:40:01.662Z,10.44
2019-04-27T20:42:31.531Z,10.43
2019-04-27T20:45:01.935Z,10.43
2019-04-27T20:47:31.764Z,10.42
2019-04-27T20:50:01.097Z,10.41
2019-04-27T20:52:52.438Z,10.39
2019-04-27T20:55:21.828Z,10.39
2019-04-27T20:57:59.581Z,10.39
2019-04-27T21:00:23.008Z,10.38
2019-04-27T21:03:11.901Z,10.37
2019-04-27T21:05:54.663Z,10.36
2019-04-27T21:08:24.391Z,10.35
2019-04-27T21:10:53.740Z,10.35
2019-04-27T21:13:23.085Z,10.34
2019-04-27T21:15:52.460Z,10.34
2019-04-27T21:18:21.870Z,10.34
2019-04-27T21:20:51.299Z,10.32
2019-04-27T21:23:21.047Z,10.28
2019-04-27T21:25:51.790Z,10.28
2019-04-27T21:28:21.599Z,10.27
2019-04-27T21:30:50.971Z,10.27
2019-04-27T21:33:21.559Z,10.26
2019-04-27T21:35:51.240Z,10.25
2019-04-27T21:38:20.696Z,10.26
2019-04-27T21:40:50.017Z,10.25
2019-04-27T21:43:22.655Z,10.25
2019-04-27T21:45:52.018Z,10.26
2019-04-27T21:48:21.404Z,10.26
2019-04-27T21:50:51.596Z,10.24
2019-04-27T21:53:31.289Z,10.24
2019-04-27T21:56:02.387Z,10.23
2019-04-27T21:58:33.325Z,10.22
2019-04-27T22:01:22.546Z,10.22
2019-04-27T22:03:52.717Z,10.22
2019-04-27T22:06:22.291Z,10.21
2019-04-27T22:08:51.622Z,10.20
2019-04-27T22:11:21.862Z,10.18
2019-04-27T22:13:51.395Z,10.18
2019-04-27T22:16:21.328Z,10.18
2019-04-27T22:18:51.938Z,10.19
2019-04-27T22:21:21.773Z,10.18
2019-04-27T22:23:56.247Z,10.19
2019-04-27T22:26:25.578Z,10.19
2019-04-27T22:28:54.936Z,10.20
2019-04-27T22:31:24.259Z,10.20
2019-04-27T22:33:54.619Z,10.21
2019-04-27T22:36:24.052Z,10.21
2019-04-27T22:38:55.463Z,10.20
2019-04-27T22:41:48.067Z,10.19
2019-04-27T22:44:31.706Z,10.20
2019-04-27T22:47:01.272Z,10.19
2019-04-27T22:49:31.294Z,10.19
2019-04-27T22:52:01.497Z,10.18
2019-04-27T22:54:31.915Z,10.17
2019-04-27T22:57:05.366Z,10.16
2019-04-27T22:59:41.541Z,10.16
2019-04-27T23:02:25.527Z,10.15
2019-04-27T23:05:01.753Z,10.15
2019-04-27T23:07:31.582Z,10.13
2019-04-27T23:10:01.616Z,10.13
2019-04-27T23:12:31.695Z,10.13
2019-04-27T23:15:01.244Z,10.12
2019-04-27T23:17:48.959Z,10.11
2019-04-27T23:20:18.332Z,10.09
2019-04-27T23:22:47.658Z,10.08
2019-04-27T23:25:17.017Z,10.06
2019-04-27T23:27:46.374Z,10.07
2019-04-27T23:30:16.726Z,10.05
2019-04-27T23:32:47.699Z,10.05
2019-04-27T23:35:17.027Z,10.04
2019-04-27T23:37:46.393Z,10.04
2019-04-27T23:40:16.045Z,10.03
2019-04-27T23:42:45.365Z,10.02
2019-04-27T23:45:15.229Z,10.02
2019-04-27T23:47:44.601Z,10.02
2019-04-27T23:50:14.361Z,10.00
2019-04-27T23:53:17.844Z,10.01
2019-04-27T23:55:47.214Z,10.00
2019-04-27T23:58:16.578Z,9.98
